»·PEaware :: ASA587 KBAM-KSFO

ASA587 :: KBAM-KSFO

FLIGHT INFORMATION

Flight Status: Arrived
Operator:
Alaska Airlines
More flights by this operator :: More flights under this callsign
Pilot: Nathan B. (19040)
Aircraft: DEHAVILLAND DASH 8 400
(DH8D)
More flights by this aircraft type
Origin: KBAM Battle Mountain
United States
Destination: KSFO San Francisco Intl
United States
More flights between these airports :: More routes between these airports
Route: BAM LLC FMG MOD8
File this flight plan on PilotEdge
Remarks:
Altitude:
(Current/Filed)
24,000ft
Speed:
(Current/Filed)
280kts
Departed: 06-May-19 06:57 PM
Arrived: 06-May-19 08:11 PM
Distance/Time
Traveled:
313nm/1:13
Distance/Time
To Go:
Arrived

Flight Plot

Page will automatically refresh every two minutes.

Flight plan parsing failed; only flown route is shown


Map Options




Map Legend


Flown Route
Filed Route
Departure Airport
Arrival Airport
Navaid (VOR, NDB)
Fix

Horizontal Profiles

Position Reports

Time Latitude Longitude Heading Altitude Ground
Speed
06-May-19 18:44 40.607167 -116.873680 263 4531ft 0kts
06-May-19 18:45 40.607167 -116.873680 263 4531ft 0kts
06-May-19 18:46 40.607167 -116.873680 263 4531ft 0kts
06-May-19 18:46 40.607167 -116.873680 263 4531ft 0kts
06-May-19 18:48 40.607167 -116.873680 263 4531ft 0kts
06-May-19 18:48 40.607167 -116.873680 263 4531ft 0kts
06-May-19 18:49 40.607167 -116.873680 263 4531ft 0kts
06-May-19 18:51 40.606781 -116.874113 203 4532ft 8kts
06-May-19 18:51 40.606368 -116.871074 82 4531ft 23kts
06-May-19 18:52 40.607523 -116.866039 124 4531ft 0kts
06-May-19 18:53 40.607523 -116.866039 124 4531ft 0kts
06-May-19 18:54 40.607523 -116.866039 124 4531ft 0kts
06-May-19 18:55 40.606607 -116.865656 227 4531ft 0kts
06-May-19 18:56 40.594645 -116.883582 229 4809ft 148kts
06-May-19 18:57 40.563747 -116.928512 233 6569ft 180kts
06-May-19 18:58 40.548670 -116.997531 255 8149ft 205kts
06-May-19 18:59 40.530503 -117.070719 253 9953ft 216kts
06-May-19 19:00 40.510010 -117.148964 252 11816ft 234kts
06-May-19 19:01 40.488640 -117.230259 252 14158ft 240kts
06-May-19 19:02 40.466389 -117.314956 249 16353ft 246kts
06-May-19 19:03 40.443793 -117.400508 250 18300ft 252kts
06-May-19 19:04 40.420294 -117.489246 250 19938ft 261kts
06-May-19 19:05 40.395955 -117.580559 250 21384ft 268kts
06-May-19 19:06 40.370984 -117.674095 249 22657ft 274kts
06-May-19 19:07 40.345249 -117.770205 249 23770ft 281kts
06-May-19 19:08 40.317988 -117.871851 250 23992ft 315kts
06-May-19 19:09 40.287323 -117.985841 250 23926ft 344kts
06-May-19 19:10 40.254740 -118.106137 250 23898ft 353kts
06-May-19 19:11 40.221951 -118.226251 249 23897ft 346kts
06-May-19 19:12 40.189658 -118.344038 250 23899ft 343kts
06-May-19 19:13 40.157506 -118.460850 250 23899ft 340kts
06-May-19 19:14 40.123789 -118.575974 242 23900ft 338kts
06-May-19 19:15 40.071588 -118.676637 233 23898ft 336kts
06-May-19 19:16 40.017515 -118.775996 233 23900ft 336kts
06-May-19 19:17 39.963093 -118.875692 234 23898ft 336kts
06-May-19 19:18 39.908573 -118.975278 235 23902ft 339kts
06-May-19 19:19 39.853385 -119.075826 236 23903ft 340kts
06-May-19 19:20 39.798270 -119.175870 236 23926ft 340kts
06-May-19 19:21 39.743297 -119.275345 236 23949ft 339kts
06-May-19 19:22 39.688102 -119.374912 236 23955ft 340kts
06-May-19 19:23 39.632749 -119.474446 236 23954ft 340kts
06-May-19 19:24 39.577156 -119.574095 236 23958ft 340kts
06-May-19 19:25 39.512188 -119.662743 206 23954ft 344kts
06-May-19 19:26 39.421351 -119.702147 197 23959ft 345kts
06-May-19 19:27 39.328821 -119.740783 197 23964ft 354kts
06-May-19 19:28 39.234601 -119.780011 197 23987ft 356kts
06-May-19 19:29 39.140116 -119.819245 197 24018ft 357kts
06-May-19 19:30 39.045360 -119.858481 197 24039ft 358kts
06-May-19 19:31 38.950663 -119.897575 198 24045ft 359kts
06-May-19 19:32 38.854739 -119.937069 198 24043ft 360kts
06-May-19 19:33 38.759431 -119.976198 198 24049ft 360kts
06-May-19 19:34 38.663956 -120.015296 198 24053ft 361kts
06-May-19 19:35 38.569275 -120.053903 198 24054ft 361kts
06-May-19 19:36 38.472751 -120.093209 198 24043ft 361kts
06-May-19 19:37 38.376833 -120.132147 198 24032ft 362kts
06-May-19 19:38 38.281047 -120.170925 198 24042ft 362kts
06-May-19 19:39 38.185398 -120.209550 198 23994ft 363kts
06-May-19 19:40 38.089008 -120.248347 198 23995ft 363kts
06-May-19 19:41 37.992944 -120.286919 198 23991ft 362kts
06-May-19 19:42 37.896545 -120.325514 198 23994ft 363kts
06-May-19 19:43 37.800059 -120.364040 198 23954ft 362kts
06-May-19 19:44 37.712863 -120.422017 233 23925ft 354kts
06-May-19 19:45 37.682513 -120.534968 264 23853ft 343kts
06-May-19 19:46 37.666891 -120.656400 264 22644ft 350kts
06-May-19 19:47 37.651326 -120.775653 264 21136ft 337kts
06-May-19 19:48 37.636279 -120.890318 264 19621ft 324kts
06-May-19 19:49 37.622236 -121.001059 265 18115ft 315kts
06-May-19 19:50 37.610307 -121.109375 265 16616ft 310kts
06-May-19 19:51 37.598193 -121.216270 264 15119ft 306kts
06-May-19 19:52 37.586096 -121.321844 264 13785ft 299kts
06-May-19 19:53 37.574287 -121.423848 264 12703ft 288kts
06-May-19 19:54 37.562753 -121.522911 264 11650ft 282kts
06-May-19 19:55 37.551265 -121.618991 261 10953ft 265kts
06-May-19 19:56 37.532157 -121.702719 256 10588ft 239kts
06-May-19 19:57 37.512594 -121.784791 255 8888ft 250kts
06-May-19 19:58 37.492881 -121.867709 259 7507ft 243kts
06-May-19 19:59 37.495130 -121.945284 273 6800ft 180kts
06-May-19 20:00 37.498266 -122.006585 274 5500ft 179kts
06-May-19 20:01 37.501657 -122.064384 273 4586ft 148kts
06-May-19 20:02 37.508723 -122.111527 298 4058ft 150kts
06-May-19 20:03 37.529087 -122.156976 296 3486ft 128kts
06-May-19 20:04 37.547287 -122.199732 295 2903ft 151kts
06-May-19 20:05 37.567333 -122.247244 295 2014ft 154kts
06-May-19 20:06 37.584226 -122.287321 293 1295ft 107kts
06-May-19 20:07 37.597873 -122.319807 292 715ft 102kts
06-May-19 20:08 37.610989 -122.351123 291 168ft 96kts
06-May-19 20:09 37.621236 -122.375598 295 20ft 70kts
06-May-19 20:10 37.622107 -122.385756 255 28ft 0kts
06-May-19 20:11 37.619986 -122.386316 243 30ft 10kts

Navigation Log

Ident Type
Flight plan parsing failed, navigation log unavailable